createdAt,value
2023-09-06T00:02:33.994Z,6.32
2023-09-06T00:05:19.548Z,7.05
2023-09-06T00:08:04.926Z,6.57
2023-09-06T00:10:50.567Z,7.25
2023-09-06T00:13:36.880Z,7.43
2023-09-06T00:16:22.341Z,8.10
2023-09-06T00:19:07.733Z,6.95
2023-09-06T00:21:53.070Z,6.82
2023-09-06T00:24:38.437Z,6.50
2023-09-06T00:27:23.899Z,7.05
2023-09-06T00:30:09.700Z,7.35
2023-09-06T00:32:55.155Z,6.88
2023-09-06T00:35:41.846Z,6.70
2023-09-06T00:38:27.688Z,6.50
2023-09-06T00:41:13.084Z,5.97
2023-09-06T00:43:58.583Z,7.38
2023-09-06T00:46:43.916Z,6.32
2023-09-06T00:49:29.281Z,7.03
2023-09-06T00:52:17.644Z,6.75
2023-09-06T00:55:04.069Z,6.63
2023-09-06T00:57:50.038Z,6.43
2023-09-06T01:00:36.762Z,6.20
2023-09-06T01:03:23.114Z,6.38
2023-09-06T01:06:13.267Z,6.80
2023-09-06T01:09:00.188Z,6.68
2023-09-06T01:11:47.084Z,6.32
2023-09-06T01:14:33.901Z,6.55
2023-09-06T01:17:20.464Z,6.00
2023-09-06T01:20:19.342Z,7.00
2023-09-06T01:23:32.090Z,6.07
2023-09-06T01:26:18.052Z,6.53
2023-09-06T01:29:04.625Z,6.30
2023-09-06T01:31:50.335Z,5.85
2023-09-06T01:34:35.966Z,6.15
2023-09-06T01:37:22.589Z,6.22
2023-09-06T01:40:21.323Z,7.03
2023-09-06T01:43:06.880Z,5.67
2023-09-06T01:45:53.168Z,6.70
2023-09-06T01:48:40.715Z,6.68
2023-09-06T01:51:26.965Z,6.03
2023-09-06T01:54:12.389Z,6.95
2023-09-06T01:56:57.595Z,6.43
2023-09-06T01:59:43.089Z,5.95
2023-09-06T02:02:28.678Z,6.38
2023-09-06T02:05:14.137Z,6.60
2023-09-06T02:07:59.932Z,6.65
2023-09-06T02:10:46.752Z,6.38
2023-09-06T02:13:32.290Z,6.15
2023-09-06T02:16:18.750Z,6.00
2023-09-06T02:19:04.379Z,6.32
2023-09-06T02:21:49.829Z,6.35
2023-09-06T02:24:35.115Z,6.32
2023-09-06T02:27:20.389Z,6.60
2023-09-06T02:30:07.948Z,6.38
2023-09-06T02:32:56.419Z,6.07
2023-09-06T02:35:42.574Z,6.40
2023-09-06T02:38:28.262Z,6.13
2023-09-06T02:41:13.733Z,6.70
2023-09-06T02:43:59.385Z,5.68
2023-09-06T02:46:46.002Z,5.90
2023-09-06T02:49:31.115Z,6.38
2023-09-06T02:52:29.334Z,6.85
2023-09-06T02:55:15.468Z,5.68
2023-09-06T02:58:01.037Z,5.82
2023-09-06T03:00:48.431Z,5.95
2023-09-06T03:03:34.686Z,6.10
2023-09-06T03:06:21.058Z,5.43
2023-09-06T03:09:07.950Z,6.20
2023-09-06T03:11:54.760Z,5.68
2023-09-06T03:14:44.772Z,5.30
2023-09-06T03:17:31.374Z,5.70
2023-09-06T03:20:21.931Z,5.82
2023-09-06T03:23:20.305Z,5.72
2023-09-06T03:26:12.308Z,6.07
2023-09-06T03:28:59.033Z,6.43
2023-09-06T03:31:44.272Z,6.10
2023-09-06T03:34:29.706Z,5.63
2023-09-06T03:37:19.756Z,6.50
2023-09-06T03:40:25.762Z,5.65
2023-09-06T03:43:20.801Z,7.72
2023-09-06T03:46:10.532Z,6.55
2023-09-06T03:51:41.370Z,6.68
2023-09-06T03:54:26.731Z,7.47
2023-09-06T03:57:14.129Z,6.40
2023-09-06T04:00:00.436Z,6.88
2023-09-06T04:02:46.944Z,6.00
2023-09-06T04:05:33.511Z,6.43
2023-09-06T04:08:21.267Z,6.35
2023-09-06T04:11:14.739Z,6.30
2023-09-06T04:14:02.449Z,6.32
2023-09-06T04:16:47.944Z,6.68
2023-09-06T04:19:35.027Z,6.53
2023-09-06T04:22:21.040Z,6.75
2023-09-06T04:25:07.429Z,6.78
2023-09-06T04:27:55.730Z,6.35
2023-09-06T04:33:32.044Z,6.57
2023-09-06T04:36:24.567Z,7.18
2023-09-06T04:39:18.308Z,7.28
2023-09-06T04:42:03.571Z,7.30
2023-09-06T04:44:49.532Z,6.75
2023-09-06T04:47:40.920Z,6.60
2023-09-06T04:50:26.227Z,7.23
2023-09-06T04:53:12.868Z,6.88
2023-09-06T04:56:00.074Z,6.63
2023-09-06T04:58:54.546Z,6.25
2023-09-06T05:01:39.882Z,6.63
2023-09-06T05:04:25.259Z,6.90
2023-09-06T05:07:11.907Z,6.53
2023-09-06T05:09:58.503Z,6.70
2023-09-06T05:12:44.920Z,7.55
2023-09-06T05:15:30.588Z,7.35
2023-09-06T05:18:16.498Z,6.85
2023-09-06T05:21:06.134Z,6.90
2023-09-06T05:23:53.595Z,6.88
2023-09-06T05:26:40.000Z,6.47
2023-09-06T05:29:28.283Z,5.60
2023-09-06T05:32:19.720Z,6.60
2023-09-06T05:35:07.098Z,6.93
2023-09-06T05:37:53.999Z,6.05
2023-09-06T05:40:44.638Z,7.03
2023-09-06T05:43:41.965Z,6.45
2023-09-06T05:46:33.504Z,6.60
2023-09-06T05:49:29.892Z,7.22
2023-09-06T05:52:15.727Z,7.10
2023-09-06T05:55:02.369Z,6.93
2023-09-06T05:57:47.566Z,7.72
2023-09-06T06:00:36.936Z,7.32
2023-09-06T06:03:25.112Z,7.22
2023-09-06T06:06:15.015Z,6.53
2023-09-06T06:09:00.581Z,6.53
2023-09-06T06:11:46.106Z,6.57
2023-09-06T06:14:31.655Z,6.15
2023-09-06T06:17:17.172Z,7.28
2023-09-06T06:20:04.862Z,7.20
2023-09-06T06:22:49.995Z,6.72
2023-09-06T06:25:36.950Z,7.43
2023-09-06T06:28:22.658Z,7.65
2023-09-06T06:31:08.210Z,8.10
2023-09-06T06:33:54.567Z,6.80
2023-09-06T06:36:39.827Z,7.20
2023-09-06T06:39:25.274Z,7.60
2023-09-06T06:42:10.653Z,7.38
2023-09-06T06:45:04.558Z,7.07
2023-09-06T06:47:50.422Z,6.97
2023-09-06T06:50:35.866Z,7.60
2023-09-06T06:53:21.083Z,6.82
2023-09-06T06:56:07.670Z,7.22
2023-09-06T06:58:53.000Z,7.45
2023-09-06T07:01:38.528Z,7.25
2023-09-06T07:04:24.009Z,7.47
2023-09-06T07:07:09.707Z,7.03
2023-09-06T07:09:55.284Z,7.28
2023-09-06T07:12:40.688Z,6.28
2023-09-06T07:15:26.049Z,7.70
2023-09-06T07:18:13.999Z,7.22
2023-09-06T07:20:59.431Z,7.30
2023-09-06T07:23:45.022Z,6.85
2023-09-06T07:26:30.523Z,7.60
2023-09-06T07:29:15.761Z,6.95
2023-09-06T07:32:01.109Z,7.10
2023-09-06T07:34:46.464Z,7.20
2023-09-06T07:37:32.689Z,6.68
2023-09-06T07:40:18.617Z,6.65
2023-09-06T07:43:04.709Z,6.70
2023-09-06T07:45:50.232Z,7.50
2023-09-06T07:48:37.602Z,6.47
2023-09-06T07:51:24.704Z,6.78
2023-09-06T07:54:11.835Z,5.70
2023-09-06T07:56:57.462Z,6.90
2023-09-06T07:59:42.927Z,6.32
2023-09-06T08:02:28.174Z,6.95
2023-09-06T08:05:13.338Z,6.95
2023-09-06T08:07:59.530Z,6.95
2023-09-06T08:10:46.012Z,6.53
2023-09-06T08:13:31.506Z,7.25
2023-09-06T08:16:17.702Z,6.20
2023-09-06T08:19:02.913Z,6.50
2023-09-06T08:21:49.015Z,6.72
2023-09-06T08:24:34.710Z,7.03
2023-09-06T08:27:19.958Z,6.38
2023-09-06T08:30:11.964Z,7.03
2023-09-06T08:32:57.436Z,7.15
2023-09-06T08:35:43.106Z,6.07
2023-09-06T08:38:28.862Z,7.45
2023-09-06T08:41:15.164Z,7.18
2023-09-06T08:44:04.960Z,5.93
2023-09-06T08:46:54.079Z,7.03
2023-09-06T08:49:40.113Z,6.68
2023-09-06T08:52:25.857Z,6.15
2023-09-06T08:55:12.251Z,6.10
2023-09-06T08:57:58.507Z,5.88
2023-09-06T09:00:44.117Z,5.80
2023-09-06T09:03:29.488Z,5.43
2023-09-06T09:06:15.319Z,5.78
2023-09-06T09:09:15.318Z,5.93
2023-09-06T09:12:00.717Z,6.80
2023-09-06T09:14:46.543Z,5.50
2023-09-06T09:17:36.208Z,5.25
2023-09-06T09:20:28.431Z,5.68
2023-09-06T09:23:25.555Z,6.40
2023-09-06T09:26:11.006Z,5.97
2023-09-06T09:28:56.440Z,5.82
2023-09-06T09:31:41.871Z,5.68
2023-09-06T09:34:27.197Z,6.18
2023-09-06T09:37:12.546Z,5.40
2023-09-06T09:39:57.934Z,5.22
2023-09-06T09:42:56.027Z,5.45
2023-09-06T09:45:45.081Z,5.25
2023-09-06T09:48:31.879Z,5.50
2023-09-06T09:51:17.731Z,4.53
2023-09-06T09:54:05.076Z,4.93
2023-09-06T09:57:05.718Z,4.88
2023-09-06T09:59:54.078Z,5.22
2023-09-06T10:02:41.298Z,6.20
2023-09-06T10:05:30.694Z,5.53
2023-09-06T10:11:09.809Z,5.78
2023-09-06T10:13:57.432Z,4.55
2023-09-06T10:16:43.075Z,5.40
2023-09-06T10:19:32.838Z,4.88
2023-09-06T10:22:23.082Z,4.88
2023-09-06T10:25:11.184Z,4.85
2023-09-06T10:27:57.840Z,4.88
2023-09-06T10:30:51.757Z,4.68
2023-09-06T10:33:37.036Z,4.93
2023-09-06T10:36:28.443Z,4.57
2023-09-06T10:39:15.779Z,5.57
2023-09-06T10:42:12.371Z,3.80
2023-09-06T10:45:00.035Z,4.60
2023-09-06T10:47:46.373Z,4.38
2023-09-06T10:50:31.571Z,4.20
2023-09-06T10:53:20.347Z,5.15
2023-09-06T10:56:06.882Z,4.50
2023-09-06T10:58:56.640Z,4.38
2023-09-06T11:02:12.772Z,4.47
2023-09-06T11:05:06.784Z,5.20
2023-09-06T11:07:52.390Z,4.60
2023-09-06T11:10:37.777Z,4.82
2023-09-06T11:13:30.260Z,4.90
2023-09-06T11:16:17.115Z,4.53
2023-09-06T11:19:02.582Z,4.85
2023-09-06T11:21:48.070Z,4.57
2023-09-06T11:24:37.399Z,4.97
2023-09-06T11:30:12.211Z,4.53
2023-09-06T11:32:57.854Z,4.10
2023-09-06T11:35:57.830Z,4.70
2023-09-06T11:38:44.833Z,4.28
2023-09-06T11:41:30.141Z,4.60
2023-09-06T11:44:18.722Z,4.30
2023-09-06T11:47:07.805Z,4.67
2023-09-06T11:49:56.433Z,3.88
2023-09-06T11:52:57.159Z,4.22
2023-09-06T11:55:47.008Z,4.22
2023-09-06T11:58:33.488Z,4.35
2023-09-06T12:01:25.474Z,3.60
2023-09-06T12:04:17.706Z,4.10
2023-09-06T12:07:08.293Z,4.18
2023-09-06T12:09:57.040Z,4.18
2023-09-06T12:12:43.899Z,3.80
2023-09-06T12:15:29.439Z,4.50
2023-09-06T12:18:15.217Z,4.00
2023-09-06T12:21:01.221Z,4.25
2023-09-06T12:23:47.162Z,3.28
2023-09-06T12:26:34.039Z,3.67
2023-09-06T12:29:19.398Z,3.60
2023-09-06T12:32:05.961Z,3.90
2023-09-06T12:34:51.418Z,3.53
2023-09-06T12:37:41.156Z,4.50
2023-09-06T12:43:15.617Z,3.75
2023-09-06T12:46:02.122Z,3.67
2023-09-06T12:48:48.227Z,3.88
2023-09-06T12:51:33.679Z,4.25
2023-09-06T12:54:19.060Z,3.70
2023-09-06T12:57:04.887Z,3.47
2023-09-06T12:59:50.307Z,4.93
2023-09-06T13:02:35.821Z,4.03
2023-09-06T13:05:22.019Z,4.15
2023-09-06T13:08:08.017Z,4.28
2023-09-06T13:10:53.349Z,3.85
2023-09-06T13:13:38.645Z,4.20
2023-09-06T13:16:24.314Z,4.18
2023-09-06T13:19:11.657Z,4.93
2023-09-06T13:21:58.193Z,3.73
2023-09-06T13:24:43.648Z,3.97
2023-09-06T13:27:28.721Z,3.55
2023-09-06T13:30:15.213Z,4.13
2023-09-06T13:33:00.307Z,3.92
2023-09-06T13:35:45.700Z,3.60
2023-09-06T13:38:31.643Z,3.78
2023-09-06T13:41:16.953Z,3.42
2023-09-06T13:44:02.351Z,3.95
2023-09-06T13:46:51.116Z,4.22
2023-09-06T13:49:37.013Z,4.38
2023-09-06T13:52:22.260Z,3.97
2023-09-06T13:55:08.079Z,3.97
2023-09-06T13:57:53.661Z,3.83
2023-09-06T14:00:38.941Z,3.63
2023-09-06T14:03:25.192Z,3.45
2023-09-06T14:06:10.957Z,3.67
2023-09-06T14:08:56.136Z,3.55
2023-09-06T14:11:42.024Z,3.67
2023-09-06T14:14:28.174Z,2.85
2023-09-06T14:17:13.347Z,4.57
2023-09-06T14:19:59.694Z,3.72
2023-09-06T14:22:44.922Z,3.05
2023-09-06T14:25:30.270Z,2.90
2023-09-06T14:28:15.850Z,3.10
2023-09-06T14:31:01.873Z,4.13
2023-09-06T14:33:47.114Z,3.50
2023-09-06T14:36:32.384Z,3.65
2023-09-06T14:39:19.318Z,2.95
2023-09-06T14:42:05.845Z,3.25
2023-09-06T14:44:51.265Z,3.28
2023-09-06T14:47:36.645Z,3.90
2023-09-06T14:50:22.210Z,3.90
2023-09-06T14:53:07.712Z,3.22
2023-09-06T14:55:53.172Z,3.50
2023-09-06T14:58:38.482Z,3.25
2023-09-06T15:01:23.982Z,3.13
2023-09-06T15:04:09.445Z,3.97
2023-09-06T15:06:59.626Z,3.63
2023-09-06T15:09:45.549Z,3.88
2023-09-06T15:12:31.448Z,3.70
2023-09-06T15:15:16.852Z,3.55
2023-09-06T15:18:02.470Z,3.20
2023-09-06T15:20:48.012Z,4.40
2023-09-06T15:23:33.918Z,4.00
2023-09-06T15:26:19.431Z,3.85
2023-09-06T15:29:05.159Z,3.97
2023-09-06T15:31:50.443Z,3.20
2023-09-06T15:34:37.533Z,3.15
2023-09-06T15:37:22.938Z,4.05
2023-09-06T15:40:09.821Z,3.88
2023-09-06T15:42:55.232Z,4.28
2023-09-06T15:45:40.939Z,3.80
2023-09-06T15:48:26.400Z,3.80
2023-09-06T15:51:11.986Z,3.28
2023-09-06T15:53:57.463Z,3.10
2023-09-06T15:56:45.938Z,3.60
2023-09-06T15:59:31.650Z,3.95
2023-09-06T16:02:17.630Z,2.80
2023-09-06T16:05:03.296Z,2.80
2023-09-06T16:07:48.813Z,3.40
2023-09-06T16:10:34.265Z,3.20
2023-09-06T16:13:20.356Z,3.97
2023-09-06T16:16:07.483Z,3.42
2023-09-06T16:18:53.913Z,3.38
2023-09-06T16:21:39.186Z,3.65
2023-09-06T16:24:24.900Z,3.63
2023-09-06T16:27:10.251Z,3.53
2023-09-06T16:29:55.977Z,3.17
2023-09-06T16:32:41.596Z,3.38
2023-09-06T16:35:28.047Z,3.40
2023-09-06T16:38:13.854Z,3.20
2023-09-06T16:40:59.481Z,3.05
2023-09-06T16:43:44.945Z,4.15
2023-09-06T16:46:30.277Z,12.32
2023-09-06T16:49:16.008Z,12.93
2023-09-06T16:52:01.488Z,8.90
2023-09-06T16:54:46.694Z,5.10
2023-09-06T16:57:32.304Z,4.22
2023-09-06T17:00:17.826Z,4.28
2023-09-06T17:03:03.644Z,3.88
2023-09-06T17:05:49.098Z,4.50
2023-09-06T17:08:34.687Z,4.15
2023-09-06T17:12:03.943Z,4.07
2023-09-06T17:14:50.161Z,4.40
2023-09-06T17:17:35.858Z,5.05
2023-09-06T17:20:26.628Z,4.07
2023-09-06T17:23:12.101Z,4.20
2023-09-06T17:25:57.681Z,4.30
2023-09-06T17:28:48.355Z,4.60
2023-09-06T17:31:35.378Z,5.07
2023-09-06T17:34:21.071Z,4.78
2023-09-06T17:37:07.772Z,5.03
2023-09-06T17:39:53.773Z,5.35
2023-09-06T17:42:39.377Z,4.60
2023-09-06T17:45:25.100Z,4.90
2023-09-06T17:48:11.495Z,4.57
2023-09-06T17:50:58.968Z,4.63
2023-09-06T17:53:44.705Z,4.55
2023-09-06T17:56:30.386Z,4.63
2023-09-06T17:59:17.296Z,4.63
2023-09-06T18:02:05.782Z,5.45
2023-09-06T18:04:51.227Z,5.30
2023-09-06T18:07:37.042Z,4.47
2023-09-06T18:10:22.544Z,4.72
2023-09-06T18:13:11.921Z,4.53
2023-09-06T18:15:57.833Z,4.30
2023-09-06T18:18:45.027Z,3.78
2023-09-06T18:21:30.419Z,4.65
2023-09-06T18:24:15.967Z,4.20
2023-09-06T18:27:07.986Z,4.47
2023-09-06T18:29:55.961Z,4.53
2023-09-06T18:32:43.067Z,4.63
2023-09-06T18:35:28.684Z,4.75
2023-09-06T18:38:15.924Z,5.13
2023-09-06T18:41:01.259Z,5.22
2023-09-06T18:43:47.327Z,5.22
2023-09-06T18:46:32.979Z,6.03
2023-09-06T18:49:18.534Z,5.32
2023-09-06T18:52:08.667Z,5.30
2023-09-06T18:54:54.153Z,5.43
2023-09-06T18:57:51.343Z,4.85
2023-09-06T19:00:44.610Z,5.30
2023-09-06T19:03:30.118Z,5.50
2023-09-06T19:06:15.600Z,5.28
2023-09-06T19:09:01.517Z,5.15
2023-09-06T19:11:46.846Z,5.53
2023-09-06T19:14:32.504Z,5.55
2023-09-06T19:17:18.105Z,5.85
2023-09-06T19:20:06.817Z,5.18
2023-09-06T19:22:54.073Z,6.18
2023-09-06T19:25:44.848Z,6.57
2023-09-06T19:28:30.866Z,7.13
2023-09-06T19:31:16.256Z,8.02
2023-09-06T19:34:01.688Z,6.57
2023-09-06T19:36:47.059Z,6.50
2023-09-06T19:39:33.717Z,6.38
2023-09-06T19:42:19.718Z,6.10
2023-09-06T19:45:05.519Z,6.63
2023-09-06T19:47:51.752Z,7.03
2023-09-06T19:50:37.487Z,6.70
2023-09-06T19:53:23.194Z,7.50
2023-09-06T19:56:14.494Z,6.18
2023-09-06T19:59:00.725Z,7.95
2023-09-06T20:01:48.755Z,7.18
2023-09-06T20:04:35.920Z,6.55
2023-09-06T20:07:21.644Z,7.22
2023-09-06T20:10:09.114Z,8.70
2023-09-06T20:12:54.591Z,7.15
2023-09-06T20:15:39.968Z,7.78
2023-09-06T20:18:25.296Z,8.15
2023-09-06T20:21:10.580Z,8.05
2023-09-06T20:23:55.882Z,7.45
2023-09-06T20:26:42.249Z,7.20
2023-09-06T20:29:29.014Z,7.20
2023-09-06T20:32:14.284Z,8.00
2023-09-06T20:34:59.642Z,8.27
2023-09-06T20:37:45.119Z,7.18
2023-09-06T20:40:30.485Z,8.27
2023-09-06T20:43:15.724Z,8.38
2023-09-06T20:46:01.335Z,9.00
2023-09-06T20:48:47.348Z,8.20
2023-09-06T20:51:32.677Z,8.70
2023-09-06T20:54:18.063Z,7.88
2023-09-06T20:57:04.139Z,7.40
2023-09-06T20:59:50.509Z,6.68
2023-09-06T21:02:37.061Z,7.32
2023-09-06T21:05:22.667Z,7.30
2023-09-06T21:08:08.719Z,6.72
2023-09-06T21:10:54.261Z,6.70
2023-09-06T21:13:39.821Z,6.93
2023-09-06T21:16:25.342Z,8.57
2023-09-06T21:19:10.956Z,7.63
2023-09-06T21:21:56.511Z,7.50
2023-09-06T21:24:42.126Z,7.43
2023-09-06T21:27:27.691Z,6.97
2023-09-06T21:30:13.424Z,7.50
2023-09-06T21:32:59.464Z,7.30
2023-09-06T21:35:46.003Z,7.85
2023-09-06T21:38:31.481Z,6.85
2023-09-06T21:41:17.185Z,6.18
2023-09-06T21:44:03.673Z,6.15
2023-09-06T21:46:49.327Z,5.65
2023-09-06T21:49:34.449Z,6.13
2023-09-06T21:52:19.893Z,6.47
2023-09-06T21:55:05.760Z,6.40
2023-09-06T21:58:03.248Z,6.13
2023-09-06T22:00:57.253Z,6.80
2023-09-06T22:04:01.417Z,5.80
2023-09-06T22:07:05.880Z,6.10
2023-09-06T22:10:10.164Z,5.82
2023-09-06T22:13:14.357Z,6.20
2023-09-06T22:15:59.804Z,6.40
2023-09-06T22:18:45.989Z,6.30
2023-09-06T22:21:31.536Z,6.65
2023-09-06T22:24:16.896Z,6.00
2023-09-06T22:27:02.749Z,6.10
2023-09-06T22:29:49.131Z,6.32
2023-09-06T22:32:34.529Z,6.03
2023-09-06T22:35:19.750Z,6.32
2023-09-06T22:38:05.169Z,5.78
2023-09-06T22:40:50.998Z,5.53
2023-09-06T22:43:36.466Z,6.40
2023-09-06T22:46:22.138Z,5.88
2023-09-06T22:49:08.100Z,5.72
2023-09-06T22:51:53.294Z,5.68
2023-09-06T22:54:40.433Z,5.32
2023-09-06T22:57:25.878Z,5.55
2023-09-06T23:00:12.118Z,6.07
2023-09-06T23:02:57.752Z,5.57
2023-09-06T23:05:43.988Z,6.38
2023-09-06T23:08:29.894Z,5.95
2023-09-06T23:11:17.348Z,5.93
2023-09-06T23:14:06.522Z,6.50
2023-09-06T23:16:52.555Z,5.57
2023-09-06T23:19:45.260Z,6.05
2023-09-06T23:22:33.346Z,5.45
2023-09-06T23:25:22.724Z,5.35
2023-09-06T23:28:22.276Z,5.80
2023-09-06T23:31:11.288Z,6.20
2023-09-06T23:33:58.551Z,5.40
2023-09-06T23:36:44.262Z,6.00
2023-09-06T23:39:29.743Z,5.78
2023-09-06T23:42:17.913Z,5.95
2023-09-06T23:45:05.429Z,6.13
2023-09-06T23:47:55.248Z,6.68
2023-09-06T23:50:40.588Z,5.50
2023-09-06T23:53:26.957Z,6.00
2023-09-06T23:56:12.453Z,6.03
2023-09-06T23:58:57.676Z,6.18
